createdAt,value
2019-05-15T00:01:32.000Z,4.90
2019-05-15T00:04:01.858Z,4.90
2019-05-15T00:06:33.678Z,5.00
2019-05-15T00:09:03.623Z,4.90
2019-05-15T00:11:34.398Z,5.00
2019-05-15T00:14:04.638Z,5.00
2019-05-15T00:16:34.938Z,5.10
2019-05-15T00:19:08.656Z,5.10
2019-05-15T00:21:38.270Z,5.10
2019-05-15T00:24:13.141Z,5.20
2019-05-15T00:26:40.258Z,5.20
2019-05-15T00:29:15.842Z,5.20
2019-05-15T00:31:41.718Z,5.20
2019-05-15T00:34:12.789Z,5.20
2019-05-15T00:36:42.996Z,5.20
2019-05-15T00:39:12.872Z,5.20
2019-05-15T00:41:53.285Z,5.20
2019-05-15T00:44:14.934Z,5.10
2019-05-15T00:46:45.264Z,5.00
2019-05-15T00:49:16.087Z,5.00
2019-05-15T00:51:48.465Z,5.00
2019-05-15T00:54:19.208Z,4.90
2019-05-15T00:56:49.322Z,4.80
2019-05-15T00:59:26.402Z,4.80
2019-05-15T01:01:51.661Z,4.80
2019-05-15T01:04:21.929Z,4.70
2019-05-15T01:06:52.784Z,4.70
2019-05-15T01:09:22.983Z,4.70
2019-05-15T01:11:52.766Z,4.70
2019-05-15T01:14:22.539Z,4.60
2019-05-15T01:16:52.457Z,4.70
2019-05-15T01:19:23.050Z,4.60
2019-05-15T01:21:54.203Z,4.60
2019-05-15T01:24:24.535Z,4.70
2019-05-15T01:26:54.738Z,4.60
2019-05-15T01:29:38.433Z,4.60
2019-05-15T01:31:56.345Z,4.60
2019-05-15T01:34:26.106Z,4.60
2019-05-15T01:36:55.881Z,4.60
2019-05-15T01:39:25.657Z,4.50
2019-05-15T01:41:55.510Z,4.50
2019-05-15T01:44:25.327Z,4.60
2019-05-15T01:46:56.159Z,4.60
2019-05-15T01:49:27.901Z,4.60
2019-05-15T01:51:58.595Z,4.50
2019-05-15T01:54:29.054Z,4.50
2019-05-15T01:56:59.131Z,4.50
2019-05-15T01:59:29.315Z,4.50
2019-05-15T02:01:59.150Z,4.60
2019-05-15T02:04:29.125Z,4.60
2019-05-15T02:06:59.395Z,4.60
2019-05-15T02:09:30.126Z,4.60
2019-05-15T02:12:01.547Z,4.60
2019-05-15T02:14:31.373Z,4.60
2019-05-15T02:17:01.229Z,4.70
2019-05-15T02:19:31.799Z,4.60
2019-05-15T02:22:01.647Z,4.60
2019-05-15T02:24:31.537Z,4.60
2019-05-15T02:27:01.514Z,4.60
2019-05-15T02:29:31.279Z,4.60
2019-05-15T02:32:01.088Z,4.50
2019-05-15T02:34:30.857Z,4.50
2019-05-15T02:37:00.668Z,4.60
2019-05-15T02:39:30.931Z,4.60
2019-05-15T02:42:00.689Z,4.60
2019-05-15T02:44:31.340Z,4.60
2019-05-15T02:47:02.012Z,4.60
2019-05-15T02:49:31.804Z,4.60
2019-05-15T02:52:01.592Z,4.60
2019-05-15T02:54:31.384Z,4.60
2019-05-15T02:57:01.155Z,4.50
2019-05-15T02:59:31.274Z,4.50
2019-05-15T03:02:01.084Z,4.50
2019-05-15T03:04:31.271Z,4.50
2019-05-15T03:07:01.434Z,4.50
2019-05-15T03:09:31.183Z,4.50
2019-05-15T03:12:01.357Z,4.50
2019-05-15T03:14:31.136Z,4.50
2019-05-15T03:17:00.896Z,4.50
2019-05-15T03:19:30.628Z,4.50
2019-05-15T03:22:00.427Z,4.50
2019-05-15T03:24:30.714Z,4.50
2019-05-15T03:27:01.239Z,4.50
2019-05-15T03:29:31.015Z,4.50
2019-05-15T03:32:18.284Z,4.50
2019-05-15T03:34:38.315Z,4.50
2019-05-15T03:37:04.325Z,4.50
2019-05-15T03:39:34.102Z,4.50
2019-05-15T03:42:03.845Z,4.50
2019-05-15T03:44:34.038Z,4.50
2019-05-15T03:47:04.340Z,4.50
2019-05-15T03:49:34.118Z,4.50
2019-05-15T03:52:04.447Z,4.50
2019-05-15T03:54:34.227Z,4.50
2019-05-15T03:57:03.998Z,4.50
2019-05-15T03:59:34.206Z,4.60
2019-05-15T04:02:04.626Z,4.60
2019-05-15T04:04:34.451Z,4.60
2019-05-15T04:07:04.447Z,4.60
2019-05-15T04:09:34.212Z,4.60
2019-05-15T04:12:03.964Z,4.60
2019-05-15T04:14:33.909Z,4.60
2019-05-15T04:17:04.555Z,4.60
2019-05-15T04:19:34.300Z,4.60
2019-05-15T04:22:04.966Z,4.60
2019-05-15T04:24:35.119Z,4.60
2019-05-15T04:27:09.800Z,4.60
2019-05-15T04:29:39.764Z,4.60
2019-05-15T04:32:10.677Z,4.60
2019-05-15T04:34:40.491Z,4.60
2019-05-15T04:37:10.303Z,4.70
2019-05-15T04:39:40.538Z,4.70
2019-05-15T04:42:10.803Z,4.70
2019-05-15T04:44:41.191Z,4.70
2019-05-15T04:47:10.993Z,4.70
2019-05-15T04:49:41.554Z,4.70
2019-05-15T04:52:11.436Z,4.70
2019-05-15T04:54:41.311Z,4.70
2019-05-15T04:57:11.155Z,4.70
2019-05-15T04:59:41.073Z,4.70
2019-05-15T05:02:16.938Z,4.80
2019-05-15T05:04:43.751Z,4.80
2019-05-15T05:07:13.491Z,4.70
2019-05-15T05:09:43.816Z,4.70
2019-05-15T05:12:13.571Z,4.70
2019-05-15T05:14:43.730Z,4.80
2019-05-15T05:17:13.546Z,4.70
2019-05-15T05:19:43.338Z,4.70
2019-05-15T05:22:13.955Z,4.70
2019-05-15T05:24:43.769Z,4.70
2019-05-15T05:27:13.872Z,4.70
2019-05-15T05:29:44.142Z,4.70
2019-05-15T05:32:27.174Z,4.70
2019-05-15T05:34:48.202Z,4.70
2019-05-15T05:37:18.496Z,4.70
2019-05-15T05:39:48.466Z,4.70
2019-05-15T05:42:18.576Z,4.80
2019-05-15T05:44:48.976Z,4.80
2019-05-15T05:47:19.174Z,4.90
2019-05-15T05:49:49.348Z,4.90
2019-05-15T05:52:19.210Z,4.80
2019-05-15T05:54:49.148Z,4.90
2019-05-15T05:57:19.522Z,4.90
2019-05-15T05:59:49.391Z,4.90
2019-05-15T06:02:19.624Z,4.90
2019-05-15T06:04:49.394Z,4.90
2019-05-15T06:07:19.192Z,4.90
2019-05-15T06:09:48.962Z,4.90
2019-05-15T06:12:19.092Z,4.90
2019-05-15T06:14:48.830Z,5.00
2019-05-15T06:17:19.214Z,5.00
2019-05-15T06:19:49.613Z,5.00
2019-05-15T06:22:19.399Z,5.00
2019-05-15T06:24:49.182Z,5.00
2019-05-15T06:27:19.994Z,5.00
2019-05-15T06:29:50.402Z,5.10
2019-05-15T06:32:20.232Z,5.10
2019-05-15T06:34:50.026Z,5.10
2019-05-15T06:37:19.963Z,5.20
2019-05-15T06:39:49.821Z,5.20
2019-05-15T06:42:22.503Z,5.20
2019-05-15T06:44:53.028Z,5.20
2019-05-15T06:47:22.945Z,5.20
2019-05-15T06:49:55.035Z,5.20
2019-05-15T06:52:24.806Z,5.20
2019-05-15T06:54:55.083Z,5.20
2019-05-15T06:57:24.908Z,5.20
2019-05-15T06:59:55.048Z,5.20
2019-05-15T07:02:24.888Z,5.20
2019-05-15T07:04:54.668Z,5.20
2019-05-15T07:07:25.330Z,5.20
2019-05-15T07:09:58.038Z,5.20
2019-05-15T07:12:28.137Z,5.30
2019-05-15T07:14:58.471Z,5.30
2019-05-15T07:17:28.769Z,5.30
2019-05-15T07:19:59.398Z,5.30
2019-05-15T07:22:29.702Z,5.30
2019-05-15T07:24:59.936Z,5.30
2019-05-15T07:27:29.721Z,5.20
2019-05-15T07:29:59.495Z,5.20
2019-05-15T07:32:30.109Z,5.30
2019-05-15T07:34:59.846Z,5.30
2019-05-15T07:37:30.641Z,5.20
2019-05-15T07:40:00.602Z,5.20
2019-05-15T07:42:30.448Z,5.20
2019-05-15T07:45:00.290Z,5.10
2019-05-15T07:47:30.222Z,5.20
2019-05-15T07:50:00.428Z,5.20
2019-05-15T07:52:30.274Z,5.20
2019-05-15T07:54:59.990Z,5.20
2019-05-15T07:57:30.109Z,5.20
2019-05-15T07:59:59.863Z,5.20
2019-05-15T08:02:29.732Z,5.30
2019-05-15T08:05:00.121Z,5.30
2019-05-15T08:07:29.856Z,5.30
2019-05-15T08:09:59.651Z,5.30
2019-05-15T08:12:30.092Z,5.40
2019-05-15T08:14:59.886Z,5.50
2019-05-15T08:17:29.652Z,5.50
2019-05-15T08:19:59.930Z,5.50
2019-05-15T08:22:30.101Z,5.60
2019-05-15T08:25:00.103Z,5.60
2019-05-15T08:27:30.112Z,5.60
2019-05-15T08:30:00.311Z,5.60
2019-05-15T08:32:30.106Z,5.60
2019-05-15T08:34:59.864Z,5.70
2019-05-15T08:37:29.629Z,5.80
2019-05-15T08:39:59.959Z,5.90
2019-05-15T08:42:32.101Z,6.00
2019-05-15T08:45:02.058Z,6.00
2019-05-15T08:47:31.881Z,6.10
2019-05-15T08:50:01.740Z,6.10
2019-05-15T08:52:32.306Z,6.20
2019-05-15T08:55:02.065Z,6.20
2019-05-15T08:57:31.874Z,6.20
2019-05-15T09:00:01.692Z,6.30
2019-05-15T09:02:31.581Z,6.40
2019-05-15T09:05:01.856Z,6.40
2019-05-15T09:07:31.746Z,6.40
2019-05-15T09:10:01.869Z,6.30
2019-05-15T09:12:31.649Z,6.40
2019-05-15T09:15:01.881Z,6.50
2019-05-15T09:17:31.688Z,6.70
2019-05-15T09:20:01.453Z,6.80
2019-05-15T09:22:34.100Z,6.90
2019-05-15T09:25:04.677Z,7.00
2019-05-15T09:27:34.551Z,7.00
2019-05-15T09:30:05.470Z,7.10
2019-05-15T09:32:35.311Z,7.20
2019-05-15T09:35:08.177Z,7.40
2019-05-15T09:37:38.595Z,7.50
2019-05-15T09:40:09.195Z,7.50
2019-05-15T09:42:39.066Z,7.60
2019-05-15T09:45:09.887Z,7.70
2019-05-15T09:47:40.618Z,7.70
2019-05-15T09:50:10.922Z,7.80
2019-05-15T09:52:41.085Z,7.80
2019-05-15T09:55:11.470Z,7.90
2019-05-15T09:57:41.683Z,8.00
2019-05-15T10:00:12.442Z,8.00
2019-05-15T10:02:42.832Z,8.00
2019-05-15T10:05:13.401Z,7.80
2019-05-15T10:07:43.671Z,7.70
2019-05-15T10:10:13.757Z,7.70
2019-05-15T10:12:43.925Z,7.70
2019-05-15T10:15:14.110Z,7.70
2019-05-15T10:17:44.319Z,7.80
2019-05-15T10:20:14.281Z,7.90
2019-05-15T10:22:44.537Z,8.00
2019-05-15T10:25:14.961Z,8.10
2019-05-15T10:27:44.773Z,8.30
2019-05-15T10:30:18.699Z,8.30
2019-05-15T10:32:48.782Z,8.30
2019-05-15T10:35:27.728Z,8.50
2019-05-15T10:37:50.325Z,8.70
2019-05-15T10:40:21.216Z,8.80
2019-05-15T10:42:51.465Z,9.00
2019-05-15T10:45:21.741Z,8.90
2019-05-15T10:47:51.813Z,8.80
2019-05-15T10:50:21.838Z,8.80
2019-05-15T10:52:51.597Z,8.80
2019-05-15T10:55:21.596Z,8.80
2019-05-15T10:57:51.513Z,8.90
2019-05-15T11:00:22.305Z,9.10
2019-05-15T11:02:52.487Z,9.30
2019-05-15T11:05:37.346Z,9.60
2019-05-15T11:07:54.184Z,9.50
2019-05-15T11:10:23.958Z,9.60
2019-05-15T11:12:53.887Z,9.70
2019-05-15T11:15:23.882Z,9.90
2019-05-15T11:17:54.102Z,9.90
2019-05-15T11:20:24.460Z,9.90
2019-05-15T11:22:54.722Z,9.80
2019-05-15T11:25:25.214Z,9.70
2019-05-15T11:27:54.994Z,9.60
2019-05-15T11:30:25.472Z,9.60
2019-05-15T11:32:55.263Z,9.60
2019-05-15T11:35:25.436Z,9.60
2019-05-15T11:37:57.061Z,9.70
2019-05-15T11:40:28.392Z,9.50
2019-05-15T11:42:58.948Z,9.40
2019-05-15T11:45:29.524Z,9.50
2019-05-15T11:48:01.034Z,9.60
2019-05-15T11:50:30.878Z,9.70
2019-05-15T11:53:00.658Z,9.70
2019-05-15T11:55:30.915Z,9.70
2019-05-15T11:58:00.691Z,9.70
2019-05-15T12:00:30.599Z,9.80
2019-05-15T12:03:00.353Z,9.70
2019-05-15T12:05:30.121Z,9.70
2019-05-15T12:08:00.534Z,9.60
2019-05-15T12:10:30.352Z,9.50
2019-05-15T12:13:02.370Z,9.50
2019-05-15T12:15:32.252Z,9.50
2019-05-15T12:18:02.312Z,9.50
2019-05-15T12:20:32.087Z,9.40
2019-05-15T12:23:01.882Z,9.30
2019-05-15T12:25:32.652Z,9.30
2019-05-15T12:28:02.420Z,9.30
2019-05-15T12:30:32.638Z,9.30
2019-05-15T12:33:02.390Z,9.20
2019-05-15T12:35:32.669Z,9.20
2019-05-15T12:38:02.458Z,9.10
2019-05-15T13:00:48.758Z,9.20
2019-05-15T13:03:18.275Z,9.10
2019-05-15T13:05:49.137Z,9.10
2019-05-15T13:08:19.551Z,9.20
2019-05-15T13:10:49.781Z,9.20
2019-05-15T13:13:19.559Z,9.20
2019-05-15T13:15:49.670Z,9.20
2019-05-15T13:18:19.435Z,9.20
2019-05-15T13:20:49.244Z,9.40
2019-05-15T13:23:19.194Z,9.40
2019-05-15T13:25:48.965Z,9.40
2019-05-15T13:28:19.188Z,9.30
2019-05-15T13:30:49.354Z,9.30
2019-05-15T13:33:19.568Z,9.30
2019-05-15T13:35:49.323Z,9.40
2019-05-15T13:38:19.105Z,9.30
2019-05-15T13:40:48.842Z,9.30
2019-05-15T13:43:19.464Z,9.30
2019-05-15T13:45:49.282Z,9.40
2019-05-15T13:48:22.490Z,9.30
2019-05-15T13:50:52.301Z,9.30
2019-05-15T13:53:22.477Z,9.30
2019-05-15T13:55:52.314Z,9.20
2019-05-15T13:58:23.104Z,9.30
2019-05-15T14:00:53.522Z,9.30
2019-05-15T14:03:23.523Z,9.20
2019-05-15T14:05:53.967Z,9.20
2019-05-15T14:08:24.611Z,9.30
2019-05-15T14:10:58.255Z,9.30
2019-05-15T14:13:29.058Z,9.30
2019-05-15T14:15:59.585Z,9.20
2019-05-15T14:18:29.971Z,9.20
2019-05-15T14:21:01.429Z,9.10
2019-05-15T14:23:31.866Z,9.10
2019-05-15T14:26:17.574Z,9.20
2019-05-15T14:28:33.550Z,9.20
2019-05-15T14:31:04.034Z,9.10
2019-05-15T14:33:38.951Z,9.20
2019-05-15T14:36:08.788Z,9.20
2019-05-15T14:38:39.202Z,9.20
2019-05-15T14:41:10.099Z,9.20
2019-05-15T14:43:40.894Z,9.20
2019-05-15T14:46:10.675Z,9.20
2019-05-15T14:48:40.650Z,9.20
2019-05-15T14:51:11.234Z,9.20
2019-05-15T14:53:41.035Z,9.30
2019-05-15T14:56:11.486Z,9.30
2019-05-15T14:58:41.765Z,9.40
2019-05-15T15:01:13.339Z,9.30
2019-05-15T15:03:44.131Z,9.40
2019-05-15T15:06:13.938Z,9.30
2019-05-15T15:08:45.007Z,9.20
2019-05-15T15:11:17.784Z,9.30
2019-05-15T15:13:47.292Z,9.20
2019-05-15T15:16:19.353Z,9.20
2019-05-15T15:18:48.502Z,9.20
2019-05-15T15:21:19.670Z,9.20
2019-05-15T15:23:50.829Z,9.10
2019-05-15T15:26:21.063Z,9.20
2019-05-15T15:28:51.135Z,9.20
2019-05-15T15:31:22.254Z,9.20
2019-05-15T15:33:52.141Z,9.20
2019-05-15T15:36:22.317Z,9.20
2019-05-15T15:38:52.225Z,9.20
2019-05-15T15:41:22.671Z,9.20
2019-05-15T15:43:52.838Z,9.20
2019-05-15T15:46:22.861Z,9.20
2019-05-15T15:48:53.514Z,9.20
2019-05-15T15:51:24.502Z,9.20
2019-05-15T15:53:54.387Z,9.20
2019-05-15T15:56:24.872Z,9.10
2019-05-15T15:58:55.458Z,9.10
2019-05-15T16:01:27.684Z,9.10
2019-05-15T16:03:57.262Z,9.10
2019-05-15T16:06:29.355Z,9.00
2019-05-15T16:08:59.693Z,9.00
2019-05-15T16:11:29.828Z,9.10
2019-05-15T16:14:00.208Z,9.00
2019-05-15T16:16:30.817Z,9.00
2019-05-15T16:19:03.057Z,9.00
2019-05-15T16:21:33.718Z,9.00
2019-05-15T16:24:14.896Z,9.00
2019-05-15T16:26:38.236Z,8.90
2019-05-15T16:29:09.339Z,9.00
2019-05-15T16:31:43.130Z,9.00
2019-05-15T16:34:13.638Z,9.10
2019-05-15T16:36:44.332Z,9.10
2019-05-15T16:39:14.183Z,9.10
2019-05-15T16:41:44.447Z,9.00
2019-05-15T16:44:14.590Z,9.00
2019-05-15T16:46:48.003Z,9.00
2019-05-15T16:49:19.282Z,8.90
2019-05-15T16:51:50.067Z,8.90
2019-05-15T16:54:21.593Z,8.90
2019-05-15T16:56:52.689Z,8.90
2019-05-15T16:59:24.419Z,8.90
2019-05-15T17:01:54.800Z,8.90
2019-05-15T17:04:28.630Z,8.80
2019-05-15T17:07:01.213Z,8.80
2019-05-15T17:09:33.542Z,8.70
2019-05-15T17:12:08.542Z,8.60
2019-05-15T17:14:38.784Z,8.70
2019-05-15T17:17:10.423Z,8.60
2019-05-15T17:19:40.514Z,8.60
2019-05-15T17:22:11.198Z,8.60
2019-05-15T17:24:41.528Z,8.60
2019-05-15T17:27:12.825Z,8.50
2019-05-15T17:29:43.515Z,8.50
2019-05-15T17:32:13.885Z,8.50
2019-05-15T17:34:44.390Z,8.60
2019-05-15T17:37:14.571Z,8.50
2019-05-15T17:39:45.249Z,8.40
2019-05-15T17:42:15.102Z,8.40
2019-05-15T17:44:48.608Z,8.40
2019-05-15T17:47:18.339Z,8.40
2019-05-15T17:49:49.441Z,8.40
2019-05-15T17:52:20.605Z,8.40
2019-05-15T17:54:50.818Z,8.40
2019-05-15T17:57:21.734Z,8.40
2019-05-15T17:59:53.430Z,8.40
2019-05-15T18:02:23.859Z,8.40
2019-05-15T18:04:55.526Z,8.40
2019-05-15T18:07:28.138Z,8.30
2019-05-15T18:09:59.208Z,8.20
2019-05-15T18:12:31.636Z,8.20
2019-05-15T18:15:03.399Z,8.10
2019-05-15T18:17:35.553Z,8.10
2019-05-15T18:20:09.409Z,8.10
2019-05-15T18:22:38.749Z,8.10
2019-05-15T18:25:09.387Z,8.10
2019-05-15T18:27:40.966Z,8.10
2019-05-15T18:30:11.101Z,8.00
2019-05-15T18:32:41.825Z,8.00
2019-05-15T18:35:12.074Z,8.00
2019-05-15T18:37:43.371Z,8.00
2019-05-15T18:40:13.717Z,7.90
2019-05-15T18:42:44.506Z,7.90
2019-05-15T18:45:15.682Z,7.90
2019-05-15T18:47:47.940Z,7.90
2019-05-15T18:50:17.606Z,7.90
2019-05-15T18:52:48.775Z,7.90
2019-05-15T18:55:19.962Z,7.80
2019-05-15T18:57:49.917Z,7.80
2019-05-15T19:00:20.473Z,7.80
2019-05-15T19:02:50.403Z,7.80
2019-05-15T19:05:21.295Z,7.80
2019-05-15T19:07:51.684Z,7.70
2019-05-15T19:10:22.202Z,7.70
2019-05-15T19:12:52.566Z,7.70
2019-05-15T19:15:22.953Z,7.70
2019-05-15T19:17:53.433Z,7.60
2019-05-15T19:20:23.539Z,7.60
2019-05-15T19:22:54.026Z,7.60
2019-05-15T19:25:24.468Z,7.60
2019-05-15T19:27:54.835Z,7.60
2019-05-15T19:30:28.444Z,7.60
2019-05-15T19:32:58.453Z,7.60
2019-05-15T19:35:30.235Z,7.60
2019-05-15T19:38:00.776Z,7.60
2019-05-15T19:40:30.761Z,7.60
2019-05-15T19:43:03.946Z,7.60
2019-05-15T19:45:33.317Z,7.60
2019-05-15T19:48:05.117Z,7.60
2019-05-15T19:50:37.443Z,7.60
2019-05-15T19:53:08.663Z,7.60
2019-05-15T19:55:39.674Z,7.50
2019-05-15T19:58:10.981Z,7.60
2019-05-15T20:00:42.052Z,7.50
2019-05-15T20:03:13.379Z,7.50
2019-05-15T20:05:44.354Z,7.40
2019-05-15T20:08:14.082Z,7.40
2019-05-15T20:10:44.026Z,7.40
2019-05-15T20:13:13.846Z,7.40
2019-05-15T20:15:45.662Z,7.30
2019-05-15T20:18:18.349Z,7.30
2019-05-15T20:20:48.573Z,7.20
2019-05-15T20:23:19.500Z,7.10
2019-05-15T20:25:50.706Z,7.10
2019-05-15T20:28:22.168Z,7.10
2019-05-15T20:30:53.981Z,7.10
2019-05-15T20:33:24.289Z,7.10
2019-05-15T20:35:58.536Z,7.10
2019-05-15T20:38:28.762Z,7.00
2019-05-15T20:40:59.855Z,7.00
2019-05-15T20:43:30.684Z,7.00
2019-05-15T20:46:01.532Z,7.00
2019-05-15T20:48:31.611Z,6.90
2019-05-15T20:51:01.737Z,6.90
2019-05-15T20:53:32.298Z,6.90
2019-05-15T20:56:02.149Z,6.90
2019-05-15T20:58:32.369Z,6.80
2019-05-15T21:01:02.979Z,6.80
2019-05-15T21:03:33.370Z,6.80
2019-05-15T21:06:03.430Z,6.80
2019-05-15T21:08:33.245Z,6.80
2019-05-15T21:11:03.220Z,6.80
2019-05-15T21:13:33.506Z,6.80
2019-05-15T21:16:03.831Z,6.70
2019-05-15T21:18:33.750Z,6.70
2019-05-15T21:21:03.787Z,6.60
2019-05-15T21:23:34.490Z,6.60
2019-05-15T21:26:04.531Z,6.50
2019-05-15T21:28:34.522Z,6.50
2019-05-15T21:31:05.698Z,6.50
2019-05-15T21:33:36.326Z,6.50
2019-05-15T21:36:07.920Z,6.50
2019-05-15T21:38:38.822Z,6.50
2019-05-15T21:41:10.135Z,6.50
2019-05-15T21:43:40.272Z,6.50
2019-05-15T21:46:10.278Z,6.40
2019-05-15T21:48:40.130Z,6.40
2019-05-15T21:51:11.901Z,6.40
2019-05-15T21:53:42.652Z,6.40
2019-05-15T21:56:12.740Z,6.40
2019-05-15T21:58:42.631Z,6.40
2019-05-15T22:01:13.254Z,6.40
2019-05-15T22:03:43.243Z,6.40
2019-05-15T22:06:12.997Z,6.40
2019-05-15T22:08:42.889Z,6.40
2019-05-15T22:11:13.054Z,6.40
2019-05-15T22:13:42.868Z,6.40
2019-05-15T22:16:12.845Z,6.30
2019-05-15T22:18:43.279Z,6.40
2019-05-15T22:21:13.031Z,6.40
2019-05-15T22:23:43.603Z,6.30
2019-05-15T22:26:13.670Z,6.30
2019-05-15T22:28:43.527Z,6.20
2019-05-15T22:31:13.301Z,6.20
2019-05-15T22:33:43.918Z,6.20
2019-05-15T22:36:14.166Z,6.20
2019-05-15T22:38:43.944Z,6.20
2019-05-15T22:41:14.104Z,6.30
2019-05-15T22:43:43.918Z,6.30
2019-05-15T22:46:14.178Z,6.30
2019-05-15T22:48:44.305Z,6.20
2019-05-15T22:51:14.520Z,6.20
2019-05-15T22:53:45.016Z,6.10
2019-05-15T22:56:14.893Z,6.10
2019-05-15T22:58:45.126Z,6.10
2019-05-15T23:01:18.896Z,6.10
2019-05-15T23:03:49.147Z,6.10
2019-05-15T23:06:20.016Z,6.10
2019-05-15T23:08:49.859Z,6.10
2019-05-15T23:11:20.141Z,6.20
2019-05-15T23:13:51.289Z,6.20
2019-05-15T23:16:21.096Z,6.20
2019-05-15T23:18:51.330Z,6.20
2019-05-15T23:21:22.739Z,6.20
2019-05-15T23:23:52.638Z,6.20
2019-05-15T23:26:23.135Z,6.20
2019-05-15T23:28:53.941Z,6.20
2019-05-15T23:31:23.865Z,6.30
2019-05-15T23:33:54.063Z,6.20
2019-05-15T23:36:23.845Z,6.20
2019-05-15T23:38:53.662Z,6.20
2019-05-15T23:41:23.924Z,6.20
2019-05-15T23:43:54.513Z,6.10
2019-05-15T23:46:24.257Z,6.10
2019-05-15T23:48:54.172Z,6.10
2019-05-15T23:51:24.132Z,6.10
2019-05-15T23:53:53.918Z,6.10
2019-05-15T23:56:24.124Z,6.10
2019-05-15T23:58:53.946Z,6.10
